sensor_id;sensor_type;location;lat;lon;timestamp;P1;durP1;ratioP1;P2;durP2;ratioP2
22904;SDS011;11619;50.140;8.518;2023-08-06T00:01:25;5.18;;;4.78;;
22904;SDS011;11619;50.140;8.518;2023-08-06T00:03:52;5.10;;;4.57;;
22904;SDS011;11619;50.140;8.518;2023-08-06T00:06:18;4.63;;;3.90;;
22904;SDS011;11619;50.140;8.518;2023-08-06T00:08:45;4.35;;;4.05;;
22904;SDS011;11619;50.140;8.518;2023-08-06T00:11:11;5.28;;;4.28;;
22904;SDS011;11619;50.140;8.518;2023-08-06T00:13:39;4.88;;;4.47;;
22904;SDS011;11619;50.140;8.518;2023-08-06T00:16:11;4.90;;;4.40;;
22904;SDS011;11619;50.140;8.518;2023-08-06T00:18:39;8.07;;;4.25;;
22904;SDS011;11619;50.140;8.518;2023-08-06T00:21:05;5.05;;;4.55;;
22904;SDS011;11619;50.140;8.518;2023-08-06T00:23:32;5.93;;;4.85;;
22904;SDS011;11619;50.140;8.518;2023-08-06T00:25:58;4.93;;;4.40;;
22904;SDS011;11619;50.140;8.518;2023-08-06T00:28:25;5.10;;;4.60;;
22904;SDS011;11619;50.140;8.518;2023-08-06T00:30:54;4.88;;;4.47;;
22904;SDS011;11619;50.140;8.518;2023-08-06T00:33:21;5.78;;;5.20;;
22904;SDS011;11619;50.140;8.518;2023-08-06T00:35:48;6.70;;;4.78;;
22904;SDS011;11619;50.140;8.518;2023-08-06T00:38:15;8.57;;;4.88;;
22904;SDS011;11619;50.140;8.518;2023-08-06T00:40:41;6.10;;;4.78;;
22904;SDS011;11619;50.140;8.518;2023-08-06T00:43:07;6.97;;;4.57;;
22904;SDS011;11619;50.140;8.518;2023-08-06T00:45:35;5.82;;;5.00;;
22904;SDS011;11619;50.140;8.518;2023-08-06T00:48:02;7.05;;;4.97;;
22904;SDS011;11619;50.140;8.518;2023-08-06T00:50:30;5.97;;;5.47;;
22904;SDS011;11619;50.140;8.518;2023-08-06T00:52:56;7.05;;;5.20;;
22904;SDS011;11619;50.140;8.518;2023-08-06T00:55:23;5.80;;;4.78;;
22904;SDS011;11619;50.140;8.518;2023-08-06T00:57:50;6.28;;;5.05;;
22904;SDS011;11619;50.140;8.518;2023-08-06T01:00:19;6.50;;;5.07;;
22904;SDS011;11619;50.140;8.518;2023-08-06T01:02:46;6.03;;;5.43;;
22904;SDS011;11619;50.140;8.518;2023-08-06T01:05:12;6.63;;;4.97;;
22904;SDS011;11619;50.140;8.518;2023-08-06T01:07:55;6.75;;;5.72;;
22904;SDS011;11619;50.140;8.518;2023-08-06T01:13:16;5.65;;;5.05;;
22904;SDS011;11619;50.140;8.518;2023-08-06T01:15:50;5.40;;;5.00;;
22904;SDS011;11619;50.140;8.518;2023-08-06T01:18:23;5.63;;;5.13;;
22904;SDS011;11619;50.140;8.518;2023-08-06T01:20:49;5.28;;;4.78;;
22904;SDS011;11619;50.140;8.518;2023-08-06T01:23:16;6.00;;;5.40;;
22904;SDS011;11619;50.140;8.518;2023-08-06T01:25:49;5.82;;;5.32;;
22904;SDS011;11619;50.140;8.518;2023-08-06T01:28:29;5.40;;;4.90;;
22904;SDS011;11619;50.140;8.518;2023-08-06T01:31:44;6.03;;;4.78;;
22904;SDS011;11619;50.140;8.518;2023-08-06T01:34:17;5.78;;;4.78;;
22904;SDS011;11619;50.140;8.518;2023-08-06T01:36:44;5.35;;;4.85;;
22904;SDS011;11619;50.140;8.518;2023-08-06T01:39:11;4.53;;;4.03;;
22904;SDS011;11619;50.140;8.518;2023-08-06T01:41:37;4.80;;;4.40;;
22904;SDS011;11619;50.140;8.518;2023-08-06T01:44:04;6.53;;;4.85;;
22904;SDS011;11619;50.140;8.518;2023-08-06T01:46:30;5.78;;;4.50;;
22904;SDS011;11619;50.140;8.518;2023-08-06T01:48:57;6.00;;;4.95;;
22904;SDS011;11619;50.140;8.518;2023-08-06T01:51:23;6.80;;;5.03;;
22904;SDS011;11619;50.140;8.518;2023-08-06T01:53:50;6.38;;;4.97;;
22904;SDS011;11619;50.140;8.518;2023-08-06T01:56:16;5.47;;;4.97;;
22904;SDS011;11619;50.140;8.518;2023-08-06T01:58:42;8.80;;;4.60;;
22904;SDS011;11619;50.140;8.518;2023-08-06T02:01:09;6.25;;;4.47;;
22904;SDS011;11619;50.140;8.518;2023-08-06T02:03:35;5.88;;;4.57;;
22904;SDS011;11619;50.140;8.518;2023-08-06T02:06:02;5.03;;;4.53;;
22904;SDS011;11619;50.140;8.518;2023-08-06T02:08:28;6.32;;;4.65;;
22904;SDS011;11619;50.140;8.518;2023-08-06T02:10:56;8.10;;;4.72;;
22904;SDS011;11619;50.140;8.518;2023-08-06T02:13:24;4.82;;;4.43;;
22904;SDS011;11619;50.140;8.518;2023-08-06T02:15:50;6.57;;;4.82;;
22904;SDS011;11619;50.140;8.518;2023-08-06T02:18:17;8.57;;;5.80;;
22904;SDS011;11619;50.140;8.518;2023-08-06T02:20:43;5.82;;;4.95;;
22904;SDS011;11619;50.140;8.518;2023-08-06T02:23:10;5.00;;;4.50;;
22904;SDS011;11619;50.140;8.518;2023-08-06T02:25:36;6.57;;;5.20;;
22904;SDS011;11619;50.140;8.518;2023-08-06T02:28:03;7.03;;;5.10;;
22904;SDS011;11619;50.140;8.518;2023-08-06T02:30:29;5.30;;;4.80;;
22904;SDS011;11619;50.140;8.518;2023-08-06T02:32:56;5.75;;;4.80;;
22904;SDS011;11619;50.140;8.518;2023-08-06T02:35:23;4.45;;;4.00;;
22904;SDS011;11619;50.140;8.518;2023-08-06T02:37:49;4.53;;;3.90;;
22904;SDS011;11619;50.140;8.518;2023-08-06T02:40:15;6.10;;;4.55;;
22904;SDS011;11619;50.140;8.518;2023-08-06T02:42:42;6.13;;;4.40;;
22904;SDS011;11619;50.140;8.518;2023-08-06T02:45:08;5.47;;;4.95;;
22904;SDS011;11619;50.140;8.518;2023-08-06T02:47:35;5.10;;;4.60;;
22904;SDS011;11619;50.140;8.518;2023-08-06T02:50:01;5.15;;;4.20;;
22904;SDS011;11619;50.140;8.518;2023-08-06T02:52:28;8.65;;;5.00;;
22904;SDS011;11619;50.140;8.518;2023-08-06T02:54:54;5.60;;;5.03;;
22904;SDS011;11619;50.140;8.518;2023-08-06T02:57:21;5.72;;;4.68;;
22904;SDS011;11619;50.140;8.518;2023-08-06T02:59:47;5.65;;;4.38;;
22904;SDS011;11619;50.140;8.518;2023-08-06T03:02:13;4.40;;;4.00;;
22904;SDS011;11619;50.140;8.518;2023-08-06T03:04:40;5.25;;;4.55;;
22904;SDS011;11619;50.140;8.518;2023-08-06T03:07:06;5.45;;;4.22;;
22904;SDS011;11619;50.140;8.518;2023-08-06T03:09:33;5.10;;;4.60;;
22904;SDS011;11619;50.140;8.518;2023-08-06T03:11:59;7.07;;;4.30;;
22904;SDS011;11619;50.140;8.518;2023-08-06T03:14:26;5.18;;;4.22;;
22904;SDS011;11619;50.140;8.518;2023-08-06T03:16:52;4.90;;;4.40;;
22904;SDS011;11619;50.140;8.518;2023-08-06T03:19:19;4.28;;;3.63;;
22904;SDS011;11619;50.140;8.518;2023-08-06T03:21:45;6.25;;;4.50;;
22904;SDS011;11619;50.140;8.518;2023-08-06T03:24:13;4.68;;;3.88;;
22904;SDS011;11619;50.140;8.518;2023-08-06T03:26:39;4.97;;;4.43;;
22904;SDS011;11619;50.140;8.518;2023-08-06T03:29:06;4.13;;;3.63;;
22904;SDS011;11619;50.140;8.518;2023-08-06T03:31:32;4.03;;;3.63;;
22904;SDS011;11619;50.140;8.518;2023-08-06T03:33:59;7.22;;;3.70;;
22904;SDS011;11619;50.140;8.518;2023-08-06T03:36:26;5.55;;;3.95;;
22904;SDS011;11619;50.140;8.518;2023-08-06T03:38:52;5.20;;;3.35;;
22904;SDS011;11619;50.140;8.518;2023-08-06T03:41:18;3.97;;;3.58;;
22904;SDS011;11619;50.140;8.518;2023-08-06T03:43:45;4.18;;;3.78;;
22904;SDS011;11619;50.140;8.518;2023-08-06T03:46:11;4.35;;;3.25;;
22904;SDS011;11619;50.140;8.518;2023-08-06T03:48:38;4.03;;;3.63;;
22904;SDS011;11619;50.140;8.518;2023-08-06T03:51:04;7.88;;;4.05;;
22904;SDS011;11619;50.140;8.518;2023-08-06T03:53:31;5.38;;;4.32;;
22904;SDS011;11619;50.140;8.518;2023-08-06T03:55:57;4.35;;;3.83;;
22904;SDS011;11619;50.140;8.518;2023-08-06T03:58:26;7.30;;;3.97;;
22904;SDS011;11619;50.140;8.518;2023-08-06T04:00:57;4.38;;;3.38;;
22904;SDS011;11619;50.140;8.518;2023-08-06T04:03:25;5.25;;;4.00;;
22904;SDS011;11619;50.140;8.518;2023-08-06T04:05:51;6.07;;;3.90;;
22904;SDS011;11619;50.140;8.518;2023-08-06T04:08:18;3.67;;;3.35;;
22904;SDS011;11619;50.140;8.518;2023-08-06T04:10:44;4.68;;;3.72;;
22904;SDS011;11619;50.140;8.518;2023-08-06T04:13:11;5.22;;;3.22;;
22904;SDS011;11619;50.140;8.518;2023-08-06T04:15:37;6.10;;;4.13;;
22904;SDS011;11619;50.140;8.518;2023-08-06T04:18:03;5.20;;;3.88;;
22904;SDS011;11619;50.140;8.518;2023-08-06T04:20:30;4.95;;;3.50;;
22904;SDS011;11619;50.140;8.518;2023-08-06T04:22:56;3.85;;;3.42;;
22904;SDS011;11619;50.140;8.518;2023-08-06T04:25:23;7.18;;;3.60;;
22904;SDS011;11619;50.140;8.518;2023-08-06T04:27:49;4.72;;;3.70;;
22904;SDS011;11619;50.140;8.518;2023-08-06T04:30:16;4.10;;;3.40;;
22904;SDS011;11619;50.140;8.518;2023-08-06T04:32:42;5.45;;;3.63;;
22904;SDS011;11619;50.140;8.518;2023-08-06T04:35:09;3.47;;;2.90;;
22904;SDS011;11619;50.140;8.518;2023-08-06T04:37:35;3.50;;;2.90;;
22904;SDS011;11619;50.140;8.518;2023-08-06T04:40:01;4.55;;;2.85;;
22904;SDS011;11619;50.140;8.518;2023-08-06T04:42:28;4.93;;;3.38;;
22904;SDS011;11619;50.140;8.518;2023-08-06T04:44:54;6.63;;;3.17;;
22904;SDS011;11619;50.140;8.518;2023-08-06T04:47:21;3.80;;;2.83;;
22904;SDS011;11619;50.140;8.518;2023-08-06T04:49:47;4.45;;;2.85;;
22904;SDS011;11619;50.140;8.518;2023-08-06T04:52:14;5.05;;;3.03;;
22904;SDS011;11619;50.140;8.518;2023-08-06T04:54:40;3.97;;;2.88;;
22904;SDS011;11619;50.140;8.518;2023-08-06T04:57:06;4.65;;;2.78;;
22904;SDS011;11619;50.140;8.518;2023-08-06T04:59:33;3.25;;;2.50;;
22904;SDS011;11619;50.140;8.518;2023-08-06T05:01:59;4.20;;;2.67;;
22904;SDS011;11619;50.140;8.518;2023-08-06T05:04:26;6.53;;;2.67;;
22904;SDS011;11619;50.140;8.518;2023-08-06T05:06:53;2.83;;;2.15;;
22904;SDS011;11619;50.140;8.518;2023-08-06T05:09:19;3.42;;;2.42;;
22904;SDS011;11619;50.140;8.518;2023-08-06T05:11:46;3.05;;;2.00;;
22904;SDS011;11619;50.140;8.518;2023-08-06T05:14:13;5.78;;;2.38;;
22904;SDS011;11619;50.140;8.518;2023-08-06T05:16:40;6.00;;;2.58;;
22904;SDS011;11619;50.140;8.518;2023-08-06T05:19:06;4.30;;;2.25;;
22904;SDS011;11619;50.140;8.518;2023-08-06T05:21:32;4.65;;;2.70;;
22904;SDS011;11619;50.140;8.518;2023-08-06T05:23:59;5.30;;;2.20;;
22904;SDS011;11619;50.140;8.518;2023-08-06T05:26:25;5.15;;;2.28;;
22904;SDS011;11619;50.140;8.518;2023-08-06T05:28:52;5.55;;;1.83;;
22904;SDS011;11619;50.140;8.518;2023-08-06T05:31:18;3.33;;;1.85;;
22904;SDS011;11619;50.140;8.518;2023-08-06T05:33:44;3.70;;;1.67;;
22904;SDS011;11619;50.140;8.518;2023-08-06T05:36:11;2.22;;;1.48;;
22904;SDS011;11619;50.140;8.518;2023-08-06T05:38:37;2.13;;;1.60;;
22904;SDS011;11619;50.140;8.518;2023-08-06T05:41:04;2.03;;;1.83;;
22904;SDS011;11619;50.140;8.518;2023-08-06T05:43:30;1.92;;;1.70;;
22904;SDS011;11619;50.140;8.518;2023-08-06T05:45:57;3.13;;;1.52;;
22904;SDS011;11619;50.140;8.518;2023-08-06T05:48:23;4.30;;;2.00;;
22904;SDS011;11619;50.140;8.518;2023-08-06T05:50:51;2.67;;;1.80;;
22904;SDS011;11619;50.140;8.518;2023-08-06T05:53:18;3.92;;;2.13;;
22904;SDS011;11619;50.140;8.518;2023-08-06T05:55:44;2.28;;;1.70;;
22904;SDS011;11619;50.140;8.518;2023-08-06T05:58:11;3.22;;;1.70;;
22904;SDS011;11619;50.140;8.518;2023-08-06T06:00:37;2.92;;;1.90;;
22904;SDS011;11619;50.140;8.518;2023-08-06T06:03:04;5.00;;;2.05;;
22904;SDS011;11619;50.140;8.518;2023-08-06T06:05:30;2.45;;;1.65;;
22904;SDS011;11619;50.140;8.518;2023-08-06T06:07:57;4.50;;;1.63;;
22904;SDS011;11619;50.140;8.518;2023-08-06T06:10:23;2.00;;;1.50;;
22904;SDS011;11619;50.140;8.518;2023-08-06T06:12:49;2.28;;;1.60;;
22904;SDS011;11619;50.140;8.518;2023-08-06T06:15:16;2.88;;;1.40;;
22904;SDS011;11619;50.140;8.518;2023-08-06T06:17:42;2.03;;;1.35;;
22904;SDS011;11619;50.140;8.518;2023-08-06T06:20:09;1.98;;;1.45;;
22904;SDS011;11619;50.140;8.518;2023-08-06T06:22:35;5.40;;;1.52;;
22904;SDS011;11619;50.140;8.518;2023-08-06T06:25:02;3.78;;;1.58;;
22904;SDS011;11619;50.140;8.518;2023-08-06T06:27:28;2.33;;;1.40;;
22904;SDS011;11619;50.140;8.518;2023-08-06T06:29:55;2.47;;;1.40;;
22904;SDS011;11619;50.140;8.518;2023-08-06T06:32:21;3.78;;;1.58;;
22904;SDS011;11619;50.140;8.518;2023-08-06T06:34:48;3.28;;;1.20;;
22904;SDS011;11619;50.140;8.518;2023-08-06T06:37:14;2.15;;;1.50;;
22904;SDS011;11619;50.140;8.518;2023-08-06T06:39:41;3.20;;;1.33;;
22904;SDS011;11619;50.140;8.518;2023-08-06T06:42:07;2.08;;;1.40;;
22904;SDS011;11619;50.140;8.518;2023-08-06T06:44:34;1.30;;;1.02;;
22904;SDS011;11619;50.140;8.518;2023-08-06T06:47:00;1.55;;;0.73;;
22904;SDS011;11619;50.140;8.518;2023-08-06T06:49:27;2.17;;;0.95;;
22904;SDS011;11619;50.140;8.518;2023-08-06T06:51:53;1.20;;;0.88;;
22904;SDS011;11619;50.140;8.518;2023-08-06T06:54:20;2.58;;;0.80;;
22904;SDS011;11619;50.140;8.518;2023-08-06T06:56:47;0.70;;;0.70;;
22904;SDS011;11619;50.140;8.518;2023-08-06T06:59:13;1.00;;;0.70;;
22904;SDS011;11619;50.140;8.518;2023-08-06T07:01:40;1.42;;;0.85;;
22904;SDS011;11619;50.140;8.518;2023-08-06T07:04:06;1.35;;;0.85;;
22904;SDS011;11619;50.140;8.518;2023-08-06T07:06:33;2.42;;;0.95;;
22904;SDS011;11619;50.140;8.518;2023-08-06T07:08:59;2.78;;;0.80;;
22904;SDS011;11619;50.140;8.518;2023-08-06T07:11:26;0.57;;;0.52;;
22904;SDS011;11619;50.140;8.518;2023-08-06T07:13:58;1.52;;;0.80;;
22904;SDS011;11619;50.140;8.518;2023-08-06T07:16:25;0.85;;;0.65;;
22904;SDS011;11619;50.140;8.518;2023-08-06T07:18:52;0.95;;;0.70;;
22904;SDS011;11619;50.140;8.518;2023-08-06T07:21:20;0.70;;;0.70;;
22904;SDS011;11619;50.140;8.518;2023-08-06T07:23:46;1.50;;;0.95;;
22904;SDS011;11619;50.140;8.518;2023-08-06T07:26:16;0.90;;;0.90;;
22904;SDS011;11619;50.140;8.518;2023-08-06T07:28:43;1.17;;;0.75;;
22904;SDS011;11619;50.140;8.518;2023-08-06T07:31:10;2.05;;;0.93;;
22904;SDS011;11619;50.140;8.518;2023-08-06T07:33:37;2.08;;;0.90;;
22904;SDS011;11619;50.140;8.518;2023-08-06T07:36:07;2.10;;;1.02;;
22904;SDS011;11619;50.140;8.518;2023-08-06T07:38:35;0.90;;;0.80;;
22904;SDS011;11619;50.140;8.518;2023-08-06T07:41:02;1.98;;;1.08;;
22904;SDS011;11619;50.140;8.518;2023-08-06T07:43:28;1.40;;;1.30;;
22904;SDS011;11619;50.140;8.518;2023-08-06T07:45:57;1.85;;;1.27;;
22904;SDS011;11619;50.140;8.518;2023-08-06T07:48:27;2.33;;;1.38;;
22904;SDS011;11619;50.140;8.518;2023-08-06T07:50:54;1.15;;;1.05;;
22904;SDS011;11619;50.140;8.518;2023-08-06T07:53:21;1.00;;;0.80;;
22904;SDS011;11619;50.140;8.518;2023-08-06T07:55:51;2.35;;;1.42;;
22904;SDS011;11619;50.140;8.518;2023-08-06T07:58:21;1.75;;;1.50;;
22904;SDS011;11619;50.140;8.518;2023-08-06T08:00:50;1.50;;;1.15;;
22904;SDS011;11619;50.140;8.518;2023-08-06T08:03:16;1.63;;;1.40;;
22904;SDS011;11619;50.140;8.518;2023-08-06T08:05:43;2.55;;;1.20;;
22904;SDS011;11619;50.140;8.518;2023-08-06T08:08:10;1.00;;;1.00;;
22904;SDS011;11619;50.140;8.518;2023-08-06T08:10:36;1.25;;;1.05;;
22904;SDS011;11619;50.140;8.518;2023-08-06T08:13:04;2.20;;;1.30;;
22904;SDS011;11619;50.140;8.518;2023-08-06T08:15:31;2.10;;;1.58;;
22904;SDS011;11619;50.140;8.518;2023-08-06T08:17:58;1.52;;;1.27;;
22904;SDS011;11619;50.140;8.518;2023-08-06T08:20:26;1.65;;;1.35;;
22904;SDS011;11619;50.140;8.518;2023-08-06T08:22:58;2.03;;;1.60;;
22904;SDS011;11619;50.140;8.518;2023-08-06T08:25:27;2.65;;;1.50;;
22904;SDS011;11619;50.140;8.518;2023-08-06T08:27:57;1.73;;;1.25;;
22904;SDS011;11619;50.140;8.518;2023-08-06T08:30:24;2.33;;;1.20;;
22904;SDS011;11619;50.140;8.518;2023-08-06T08:32:51;1.48;;;1.38;;
22904;SDS011;11619;50.140;8.518;2023-08-06T08:35:18;1.02;;;1.02;;
22904;SDS011;11619;50.140;8.518;2023-08-06T08:37:44;1.25;;;1.15;;
22904;SDS011;11619;50.140;8.518;2023-08-06T08:40:11;2.60;;;1.25;;
22904;SDS011;11619;50.140;8.518;2023-08-06T08:42:37;1.27;;;1.15;;
22904;SDS011;11619;50.140;8.518;2023-08-06T08:45:04;1.55;;;0.90;;
22904;SDS011;11619;50.140;8.518;2023-08-06T08:47:34;0.70;;;0.70;;
22904;SDS011;11619;50.140;8.518;2023-08-06T08:50:00;1.50;;;0.93;;
22904;SDS011;11619;50.140;8.518;2023-08-06T08:52:27;0.98;;;0.90;;
22904;SDS011;11619;50.140;8.518;2023-08-06T08:54:59;0.60;;;0.60;;
22904;SDS011;11619;50.140;8.518;2023-08-06T08:57:27;0.93;;;0.65;;
22904;SDS011;11619;50.140;8.518;2023-08-06T08:59:54;1.48;;;0.70;;
22904;SDS011;11619;50.140;8.518;2023-08-06T09:02:21;1.35;;;0.90;;
22904;SDS011;11619;50.140;8.518;2023-08-06T09:04:48;2.15;;;1.08;;
22904;SDS011;11619;50.140;8.518;2023-08-06T09:07:16;0.90;;;0.80;;
22904;SDS011;11619;50.140;8.518;2023-08-06T09:09:45;1.05;;;0.65;;
22904;SDS011;11619;50.140;8.518;2023-08-06T09:12:14;3.35;;;1.00;;
22904;SDS011;11619;50.140;8.518;2023-08-06T09:14:42;0.55;;;0.55;;
22904;SDS011;11619;50.140;8.518;2023-08-06T09:17:09;0.80;;;0.63;;
22904;SDS011;11619;50.140;8.518;2023-08-06T09:19:37;1.55;;;0.47;;
22904;SDS011;11619;50.140;8.518;2023-08-06T09:22:03;0.77;;;0.60;;
22904;SDS011;11619;50.140;8.518;2023-08-06T09:24:30;1.85;;;0.50;;
22904;SDS011;11619;50.140;8.518;2023-08-06T09:26:58;2.47;;;0.75;;
22904;SDS011;11619;50.140;8.518;2023-08-06T09:29:30;0.80;;;0.60;;
22904;SDS011;11619;50.140;8.518;2023-08-06T09:31:57;1.08;;;0.60;;
22904;SDS011;11619;50.140;8.518;2023-08-06T09:34:24;0.52;;;0.50;;
22904;SDS011;11619;50.140;8.518;2023-08-06T09:36:51;1.17;;;0.80;;
22904;SDS011;11619;50.140;8.518;2023-08-06T09:39:20;0.75;;;0.50;;
22904;SDS011;11619;50.140;8.518;2023-08-06T09:41:59;1.05;;;0.50;;
22904;SDS011;11619;50.140;8.518;2023-08-06T09:44:27;0.75;;;0.50;;
22904;SDS011;11619;50.140;8.518;2023-08-06T09:46:58;0.57;;;0.50;;
22904;SDS011;11619;50.140;8.518;2023-08-06T09:49:26;0.30;;;0.30;;
22904;SDS011;11619;50.140;8.518;2023-08-06T09:51:53;0.88;;;0.45;;
22904;SDS011;11619;50.140;8.518;2023-08-06T09:54:22;0.43;;;0.43;;
22904;SDS011;11619;50.140;8.518;2023-08-06T09:56:54;0.50;;;0.50;;
22904;SDS011;11619;50.140;8.518;2023-08-06T09:59:20;0.40;;;0.40;;
22904;SDS011;11619;50.140;8.518;2023-08-06T10:01:47;1.27;;;0.47;;
22904;SDS011;11619;50.140;8.518;2023-08-06T10:04:14;0.70;;;0.63;;
22904;SDS011;11619;50.140;8.518;2023-08-06T10:06:49;0.40;;;0.40;;
22904;SDS011;11619;50.140;8.518;2023-08-06T10:09:16;1.13;;;0.57;;
22904;SDS011;11619;50.140;8.518;2023-08-06T10:11:44;0.73;;;0.50;;
22904;SDS011;11619;50.140;8.518;2023-08-06T10:14:28;1.30;;;0.50;;
22904;SDS011;11619;50.140;8.518;2023-08-06T10:16:59;0.35;;;0.35;;
22904;SDS011;11619;50.140;8.518;2023-08-06T10:19:26;0.90;;;0.50;;
22904;SDS011;11619;50.140;8.518;2023-08-06T10:22:09;1.33;;;1.00;;
22904;SDS011;11619;50.140;8.518;2023-08-06T10:27:35;1.08;;;0.30;;
22904;SDS011;11619;50.140;8.518;2023-08-06T10:32:59;0.20;;;0.20;;
22904;SDS011;11619;50.140;8.518;2023-08-06T10:35:27;0.20;;;0.20;;
22904;SDS011;11619;50.140;8.518;2023-08-06T10:38:04;0.50;;;0.50;;
22904;SDS011;11619;50.140;8.518;2023-08-06T10:40:32;0.68;;;0.50;;
22904;SDS011;11619;50.140;8.518;2023-08-06T10:42:59;0.40;;;0.40;;
22904;SDS011;11619;50.140;8.518;2023-08-06T10:45:27;1.60;;;0.40;;
22904;SDS011;11619;50.140;8.518;2023-08-06T10:47:55;0.40;;;0.40;;
22904;SDS011;11619;50.140;8.518;2023-08-06T10:50:24;1.02;;;0.50;;
22904;SDS011;11619;50.140;8.518;2023-08-06T10:52:51;1.02;;;0.47;;
22904;SDS011;11619;50.140;8.518;2023-08-06T10:55:25;0.63;;;0.50;;
22904;SDS011;11619;50.140;8.518;2023-08-06T10:57:53;0.73;;;0.40;;
22904;SDS011;11619;50.140;8.518;2023-08-06T11:00:20;0.73;;;0.50;;
22904;SDS011;11619;50.140;8.518;2023-08-06T11:02:53;0.50;;;0.50;;
22904;SDS011;11619;50.140;8.518;2023-08-06T11:05:19;0.40;;;0.40;;
22904;SDS011;11619;50.140;8.518;2023-08-06T11:07:47;0.55;;;0.38;;
22904;SDS011;11619;50.140;8.518;2023-08-06T11:10:15;0.45;;;0.40;;
22904;SDS011;11619;50.140;8.518;2023-08-06T11:12:42;0.50;;;0.50;;
22904;SDS011;11619;50.140;8.518;2023-08-06T11:15:08;1.75;;;0.40;;
22904;SDS011;11619;50.140;8.518;2023-08-06T11:17:38;1.27;;;0.60;;
22904;SDS011;11619;50.140;8.518;2023-08-06T11:20:06;0.80;;;0.60;;
22904;SDS011;11619;50.140;8.518;2023-08-06T11:22:33;0.70;;;0.50;;
22904;SDS011;11619;50.140;8.518;2023-08-06T11:24:59;1.40;;;0.50;;
22904;SDS011;11619;50.140;8.518;2023-08-06T11:27:27;1.50;;;0.43;;
22904;SDS011;11619;50.140;8.518;2023-08-06T11:29:56;0.50;;;0.50;;
22904;SDS011;11619;50.140;8.518;2023-08-06T11:32:23;1.15;;;0.60;;
22904;SDS011;11619;50.140;8.518;2023-08-06T11:34:50;1.20;;;0.70;;
22904;SDS011;11619;50.140;8.518;2023-08-06T11:37:20;0.60;;;0.60;;
22904;SDS011;11619;50.140;8.518;2023-08-06T11:39:48;4.20;;;0.70;;
22904;SDS011;11619;50.140;8.518;2023-08-06T11:42:15;0.30;;;0.30;;
22904;SDS011;11619;50.140;8.518;2023-08-06T11:44:41;0.47;;;0.47;;
22904;SDS011;11619;50.140;8.518;2023-08-06T11:47:15;0.57;;;0.45;;
22904;SDS011;11619;50.140;8.518;2023-08-06T11:49:43;0.57;;;0.57;;
22904;SDS011;11619;50.140;8.518;2023-08-06T11:54:42;1.42;;;0.50;;
22904;SDS011;11619;50.140;8.518;2023-08-06T11:57:08;0.60;;;0.60;;
22904;SDS011;11619;50.140;8.518;2023-08-06T11:59:36;0.93;;;0.80;;
22904;SDS011;11619;50.140;8.518;2023-08-06T12:02:03;0.38;;;0.38;;
22904;SDS011;11619;50.140;8.518;2023-08-06T12:07:26;1.02;;;0.70;;
22904;SDS011;11619;50.140;8.518;2023-08-06T12:09:57;0.60;;;0.40;;
22904;SDS011;11619;50.140;8.518;2023-08-06T12:12:24;0.77;;;0.77;;
22904;SDS011;11619;50.140;8.518;2023-08-06T12:14:51;0.73;;;0.60;;
22904;SDS011;11619;50.140;8.518;2023-08-06T12:17:17;1.75;;;0.60;;
22904;SDS011;11619;50.140;8.518;2023-08-06T12:19:44;0.68;;;0.63;;
22904;SDS011;11619;50.140;8.518;2023-08-06T12:22:12;0.85;;;0.80;;
22904;SDS011;11619;50.140;8.518;2023-08-06T12:24:42;3.13;;;0.80;;
22904;SDS011;11619;50.140;8.518;2023-08-06T12:27:12;0.77;;;0.60;;
22904;SDS011;11619;50.140;8.518;2023-08-06T12:29:42;3.58;;;0.55;;
22904;SDS011;11619;50.140;8.518;2023-08-06T12:32:10;2.20;;;0.80;;
22904;SDS011;11619;50.140;8.518;2023-08-06T12:34:37;0.73;;;0.73;;
22904;SDS011;11619;50.140;8.518;2023-08-06T12:37:18;0.52;;;0.47;;
22904;SDS011;11619;50.140;8.518;2023-08-06T12:39:45;1.85;;;0.60;;
22904;SDS011;11619;50.140;8.518;2023-08-06T12:42:11;0.43;;;0.43;;
22904;SDS011;11619;50.140;8.518;2023-08-06T12:44:37;1.88;;;0.85;;
22904;SDS011;11619;50.140;8.518;2023-08-06T12:47:04;0.70;;;0.70;;
22904;SDS011;11619;50.140;8.518;2023-08-06T12:49:30;0.90;;;0.63;;
22904;SDS011;11619;50.140;8.518;2023-08-06T12:51:59;1.13;;;0.60;;
22904;SDS011;11619;50.140;8.518;2023-08-06T12:54:31;0.45;;;0.45;;
22904;SDS011;11619;50.140;8.518;2023-08-06T12:57:02;1.02;;;0.50;;
22904;SDS011;11619;50.140;8.518;2023-08-06T12:59:29;0.63;;;0.57;;
22904;SDS011;11619;50.140;8.518;2023-08-06T13:01:56;0.63;;;0.60;;
22904;SDS011;11619;50.140;8.518;2023-08-06T13:04:23;0.80;;;0.70;;
22904;SDS011;11619;50.140;8.518;2023-08-06T13:06:49;0.50;;;0.50;;
22904;SDS011;11619;50.140;8.518;2023-08-06T13:09:16;0.98;;;0.60;;
22904;SDS011;11619;50.140;8.518;2023-08-06T13:11:42;0.57;;;0.57;;
22904;SDS011;11619;50.140;8.518;2023-08-06T13:14:13;0.68;;;0.50;;
22904;SDS011;11619;50.140;8.518;2023-08-06T13:16:41;2.40;;;0.82;;
22904;SDS011;11619;50.140;8.518;2023-08-06T13:19:09;1.20;;;0.63;;
22904;SDS011;11619;50.140;8.518;2023-08-06T13:21:58;1.58;;;0.70;;
22904;SDS011;11619;50.140;8.518;2023-08-06T13:24:27;1.85;;;1.02;;
22904;SDS011;11619;50.140;8.518;2023-08-06T13:26:54;1.10;;;0.68;;
22904;SDS011;11619;50.140;8.518;2023-08-06T13:29:21;1.00;;;0.68;;
22904;SDS011;11619;50.140;8.518;2023-08-06T13:31:49;2.28;;;0.60;;
22904;SDS011;11619;50.140;8.518;2023-08-06T13:34:16;0.65;;;0.50;;
22904;SDS011;11619;50.140;8.518;2023-08-06T13:36:43;1.73;;;0.60;;
22904;SDS011;11619;50.140;8.518;2023-08-06T13:39:09;0.70;;;0.70;;
22904;SDS011;11619;50.140;8.518;2023-08-06T13:41:37;1.00;;;0.60;;
22904;SDS011;11619;50.140;8.518;2023-08-06T13:44:04;1.92;;;0.80;;
22904;SDS011;11619;50.140;8.518;2023-08-06T13:46:31;0.80;;;0.75;;
22904;SDS011;11619;50.140;8.518;2023-08-06T13:48:57;0.40;;;0.40;;
22904;SDS011;11619;50.140;8.518;2023-08-06T13:51:23;0.70;;;0.60;;
22904;SDS011;11619;50.140;8.518;2023-08-06T13:53:50;0.50;;;0.50;;
22904;SDS011;11619;50.140;8.518;2023-08-06T13:56:18;1.88;;;0.52;;
22904;SDS011;11619;50.140;8.518;2023-08-06T13:58:44;1.73;;;0.73;;
22904;SDS011;11619;50.140;8.518;2023-08-06T14:01:11;0.55;;;0.45;;
22904;SDS011;11619;50.140;8.518;2023-08-06T14:03:40;1.77;;;0.85;;
22904;SDS011;11619;50.140;8.518;2023-08-06T14:06:07;1.05;;;0.68;;
22904;SDS011;11619;50.140;8.518;2023-08-06T14:08:33;0.88;;;0.60;;
22904;SDS011;11619;50.140;8.518;2023-08-06T14:11:00;1.92;;;0.65;;
22904;SDS011;11619;50.140;8.518;2023-08-06T14:13:26;0.63;;;0.60;;
22904;SDS011;11619;50.140;8.518;2023-08-06T14:15:53;0.85;;;0.75;;
22904;SDS011;11619;50.140;8.518;2023-08-06T14:18:19;0.63;;;0.47;;
22904;SDS011;11619;50.140;8.518;2023-08-06T14:20:46;1.23;;;0.50;;
22904;SDS011;11619;50.140;8.518;2023-08-06T14:23:12;1.45;;;0.70;;
22904;SDS011;11619;50.140;8.518;2023-08-06T14:25:39;0.40;;;0.40;;
22904;SDS011;11619;50.140;8.518;2023-08-06T14:28:05;1.05;;;0.60;;
22904;SDS011;11619;50.140;8.518;2023-08-06T14:30:33;0.70;;;0.60;;
22904;SDS011;11619;50.140;8.518;2023-08-06T14:33:01;0.60;;;0.60;;
22904;SDS011;11619;50.140;8.518;2023-08-06T14:35:46;0.50;;;0.50;;
22904;SDS011;11619;50.140;8.518;2023-08-06T14:38:12;1.25;;;0.70;;
22904;SDS011;11619;50.140;8.518;2023-08-06T14:40:39;0.40;;;0.40;;
22904;SDS011;11619;50.140;8.518;2023-08-06T14:43:06;1.73;;;0.68;;
22904;SDS011;11619;50.140;8.518;2023-08-06T14:45:33;1.48;;;0.50;;
22904;SDS011;11619;50.140;8.518;2023-08-06T14:47:59;0.63;;;0.60;;
22904;SDS011;11619;50.140;8.518;2023-08-06T14:50:25;2.03;;;0.80;;
22904;SDS011;11619;50.140;8.518;2023-08-06T14:52:52;0.30;;;0.30;;
22904;SDS011;11619;50.140;8.518;2023-08-06T14:55:24;0.40;;;0.40;;
22904;SDS011;11619;50.140;8.518;2023-08-06T14:57:51;0.75;;;0.55;;
22904;SDS011;11619;50.140;8.518;2023-08-06T15:00:18;0.32;;;0.32;;
22904;SDS011;11619;50.140;8.518;2023-08-06T15:02:45;1.13;;;0.70;;
22904;SDS011;11619;50.140;8.518;2023-08-06T15:05:12;0.32;;;0.32;;